Photometre #45[NE_1.6] Lille AOT

File : 20220927_45.hum

27/09/2022,06:37:35,TEMP=9.9,BA=5.64,STAT.A=8.5,ExtBa=12.83
27/09/2022,06:41:41,TEMP=10.7,BA=5.64,STAT.A=8.0,ExtBa=12.77
27/09/2022,06:46:31,TEMP=10.7,BA=5.64,STAT.A=8.0,ExtBa=12.74
27/09/2022,06:52:16,TEMP=10.6,BA=5.64,STAT.A=8.5,ExtBa=12.72
27/09/2022,06:59:13,TEMP=10.4,BA=5.64,STAT.A=8.5,ExtBa=12.72
27/09/2022,07:07:49,TEMP=10.2,BA=5.52,STAT.A=8.5,ExtBa=12.73
27/09/2022,07:18:46,TEMP=10.0,BA=5.64,STAT.B=8.5,ExtBa=12.76
27/09/2022,07:24:02,TEMP=10.4,BA=5.52,STAT.A=8.5,ExtBa=12.71
27/09/2022,07:29:58,TEMP=11.0,BA=5.52,STAT.A=8.5,ExtBa=12.64
27/09/2022,07:36:41,TEMP=11.7,BA=5.56,STAT.A=8.5,ExtBa=12.64
27/09/2022,07:44:23,TEMP=12.6,BA=5.64,STAT.A=8.5,ExtBa=12.65
27/09/2022,07:53:18,TEMP=13.4,BA=5.64,STAT.C=8.5,ExtBa=12.65
27/09/2022,08:07:22,TEMP=18.2,BA=5.48,STAT.A=6.5,ExtBa=12.37
27/09/2022,08:16:22,TEMP=14.2,BA=5.64,STAT.A=8.5,ExtBa=12.65
27/09/2022,08:31:45,TEMP=14.0,BA=5.64,STAT.A=8.5,ExtBa=12.76
27/09/2022,08:39:07,TEMP=14.6,BA=5.64,STAT.F,ExtBa=12.69
27/09/2022,08:54:05,TEMP=14.1,BA=5.64,STAT.D=8.5,ExtBa=12.79
27/09/2022,09:09:05,TEMP=13.9,BA=5.64,STAT.D=8.5,ExtBa=12.81
27/09/2022,09:24:05,TEMP=14.9,BA=5.64,STAT.D=8.5,ExtBa=12.81
27/09/2022,09:39:07,TEMP=15.3,BA=5.64,STAT.F,ExtBa=12.79
27/09/2022,09:55:18,TEMP=18.5,BA=5.48,STAT.D=8.0,ExtBa=12.52
27/09/2022,10:09:05,TEMP=16.1,BA=5.64,STAT.D=8.5,ExtBa=12.73
27/09/2022,10:24:06,TEMP=15.8,BA=5.64,STAT.D=8.5,ExtBa=12.79
27/09/2022,10:39:07,TEMP=16.1,BA=5.64,STAT.F,ExtBa=12.79
27/09/2022,10:54:06,TEMP=17.2,BA=5.64,STAT.D=8.5,ExtBa=12.62
27/09/2022,11:09:06,TEMP=16.6,BA=5.64,STAT.D=8.5,ExtBa=12.76
27/09/2022,11:24:06,TEMP=16.9,BA=5.64,STAT.D=8.5,ExtBa=12.79
27/09/2022,11:39:07,TEMP=18.5,BA=5.64,STAT.F,ExtBa=12.78
27/09/2022,11:54:06,TEMP=19.2,BA=5.64,STAT.D=8.5,ExtBa=12.59
27/09/2022,12:09:06,TEMP=17.6,BA=5.64,STAT.D=8.5,ExtBa=12.74
27/09/2022,12:24:06,TEMP=17.6,BA=5.64,STAT.D=8.5,ExtBa=12.77
27/09/2022,12:39:07,TEMP=17.8,BA=5.64,STAT.F,ExtBa=12.77
27/09/2022,12:54:06,TEMP=18.8,BA=5.60,STAT.D=8.5,ExtBa=12.60
27/09/2022,13:09:05,TEMP=18.0,BA=5.64,STAT.D=8.5,ExtBa=12.73
27/09/2022,13:24:05,TEMP=17.2,BA=5.64,STAT.D=8.5,ExtBa=12.79
27/09/2022,13:39:07,TEMP=17.1,BA=5.64,STAT.F,ExtBa=12.79
27/09/2022,13:54:05,TEMP=16.8,BA=5.64,STAT.D=8.5,ExtBa=12.82
27/09/2022,14:09:05,TEMP=18.3,BA=5.64,STAT.D=8.5,ExtBa=12.81
27/09/2022,14:24:05,TEMP=18.8,BA=5.64,STAT.D=8.5,ExtBa=12.81
27/09/2022,14:39:07,TEMP=18.3,BA=5.64,STAT.F,ExtBa=12.80
27/09/2022,14:53:03,TEMP=24.7,BA=5.48,STAT.A=6.5,ExtBa=12.35
27/09/2022,15:01:52,TEMP=19.1,BA=5.64,STAT.A=8.5,ExtBa=12.63
27/09/2022,15:14:26,TEMP=17.7,BA=5.64,STAT.A=8.5,ExtBa=12.71
27/09/2022,15:24:54,TEMP=17.2,BA=5.64,STAT.C=8.5,ExtBa=12.74
27/09/2022,15:33:49,TEMP=17.2,BA=5.64,STAT.A=8.5,ExtBa=12.74
27/09/2022,15:41:31,TEMP=17.2,BA=5.64,STAT.A=8.5,ExtBa=12.74
27/09/2022,15:48:14,TEMP=17.2,BA=5.64,STAT.A=8.5,ExtBa=12.73
27/09/2022,15:54:10,TEMP=17.5,BA=5.60,STAT.A=8.5,ExtBa=12.70
27/09/2022,15:59:26,TEMP=18.0,BA=5.60,STAT.B=8.5,ExtBa=12.64
27/09/2022,16:10:23,TEMP=17.0,BA=5.64,STAT.A=8.5,ExtBa=12.72
27/09/2022,16:18:59,TEMP=16.7,BA=5.64,STAT.A=8.5,ExtBa=12.74
27/09/2022,16:19:10,TEMP=16.7,BA=5.64,STAT.h
27/09/2022,16:25:35,TEMP=16.7,BA=5.64,STAT.h
27/09/2022,16:31:41,TEMP=13.5,BA=5.64,STAT.A=8.5,ExtBa=12.82
27/09/2022,16:36:31,TEMP=13.5,BA=5.64,STAT.A=8.5,ExtBa=12.77
27/09/2022,16:40:37,TEMP=13.7,BA=5.64,STAT.A=8.5,ExtBa=12.73